createdAt,value
2022-08-02T00:02:24.074Z,99875.16
2022-08-02T00:04:51.123Z,99877.88
2022-08-02T00:07:18.099Z,99877.59
2022-08-02T00:09:45.113Z,99881.13
2022-08-02T00:12:12.415Z,99875.97
2022-08-02T00:14:39.473Z,99876.53
2022-08-02T00:17:06.351Z,99883.84
2022-08-02T00:19:33.694Z,99867.00
2022-08-02T00:22:00.417Z,99883.03
2022-08-02T00:24:30.829Z,99874.91
2022-08-02T00:26:58.355Z,99878.69
2022-08-02T00:29:25.309Z,99887.13
2022-08-02T00:31:52.030Z,99884.06
2022-08-02T00:34:29.181Z,99867.00
2022-08-02T00:36:58.835Z,99865.63
2022-08-02T00:39:34.871Z,99871.06
2022-08-02T00:42:03.012Z,99883.00
2022-08-02T00:44:29.994Z,99864.53
2022-08-02T00:46:56.774Z,99878.94
2022-08-02T00:49:23.581Z,99874.31
2022-08-02T00:51:51.567Z,99882.72
2022-08-02T00:54:19.973Z,99881.66
2022-08-02T00:56:50.061Z,99880.84
2022-08-02T00:59:18.439Z,99873.53
2022-08-02T01:01:55.666Z,99875.94
2022-08-02T01:04:29.845Z,99879.47
2022-08-02T01:07:12.475Z,99871.87
2022-08-02T01:09:46.792Z,99877.03
2022-08-02T01:12:14.381Z,99872.69
2022-08-02T01:14:48.245Z,99872.69
2022-08-02T01:17:36.870Z,99873.50
2022-08-02T01:20:17.979Z,99873.78
2022-08-02T01:23:23.400Z,99875.41
2022-08-02T01:26:30.071Z,99877.03
2022-08-02T01:29:17.067Z,99885.44
2022-08-02T01:31:58.455Z,99878.94
2022-08-02T01:34:40.150Z,99873.78
2022-08-02T01:37:21.792Z,99868.34
2022-08-02T01:40:00.941Z,99870.53
2022-08-02T01:42:30.101Z,99863.72
2022-08-02T01:44:58.970Z,99876.50
2022-08-02T01:47:33.498Z,99865.66
2022-08-02T01:50:02.418Z,99869.69
2022-08-02T01:52:32.545Z,99860.47
2022-08-02T01:55:07.003Z,99869.16
2022-08-02T01:57:42.103Z,99871.06
2022-08-02T02:00:10.957Z,99866.16
2022-08-02T02:02:42.203Z,99874.84
2022-08-02T02:05:16.231Z,99875.41
2022-08-02T02:07:44.800Z,99866.69
2022-08-02T02:10:15.578Z,99868.88
2022-08-02T02:12:46.688Z,99856.91
2022-08-02T02:15:14.259Z,99854.75
2022-08-02T02:17:52.826Z,99850.69
2022-08-02T02:20:34.060Z,99855.84
2022-08-02T02:23:00.744Z,99831.97
2022-08-02T02:25:35.663Z,99846.59
2022-08-02T02:28:09.544Z,99846.59
2022-08-02T02:30:39.142Z,99844.44
2022-08-02T02:33:08.449Z,99855.31
2022-08-02T02:35:37.912Z,99851.22
2022-08-02T02:38:11.406Z,99845.00
2022-08-02T02:40:40.380Z,99838.22
2022-08-02T02:43:09.809Z,99848.78
2022-08-02T02:45:38.316Z,99841.72
2022-08-02T02:48:06.977Z,99843.38
2022-08-02T02:50:34.963Z,99843.38
2022-08-02T02:53:02.415Z,99836.84
2022-08-02T02:55:29.905Z,99848.78
2022-08-02T02:57:56.860Z,99841.44
2022-08-02T03:00:44.181Z,99849.06
2022-08-02T03:03:12.771Z,99834.69
2022-08-02T03:05:39.485Z,99836.56
2022-08-02T03:08:06.315Z,99838.47
2022-08-02T03:10:33.846Z,99847.72
2022-08-02T03:13:01.035Z,99855.28
2022-08-02T03:15:29.207Z,99848.53
2022-08-02T03:17:56.211Z,99850.41
2022-08-02T03:20:23.026Z,99852.31
2022-08-02T03:22:50.276Z,99859.66
2022-08-02T03:25:17.966Z,99865.06
2022-08-02T03:27:44.768Z,99854.19
2022-08-02T03:30:12.906Z,99849.84
2022-08-02T03:32:41.764Z,99867.50
2022-08-02T03:35:11.058Z,99866.16
2022-08-02T03:37:38.072Z,99866.16
2022-08-02T03:40:08.586Z,99856.91
2022-08-02T03:42:35.359Z,99857.72
2022-08-02T03:45:08.500Z,99863.13
2022-08-02T03:47:38.667Z,99847.41
2022-08-02T03:50:07.677Z,99854.72
2022-08-02T03:52:34.721Z,99858.25
2022-08-02T03:55:01.785Z,99852.56
2022-08-02T03:57:28.666Z,99856.06
2022-08-02T03:59:55.323Z,99850.66
2022-08-02T04:02:22.344Z,99849.84
2022-08-02T04:04:49.273Z,99845.50
2022-08-02T04:07:15.927Z,99853.09
2022-08-02T04:10:03.202Z,99847.13
2022-08-02T04:12:29.903Z,99850.13
2022-08-02T04:14:57.933Z,99844.62
2022-08-02T04:17:25.875Z,99866.91
2022-08-02T04:20:01.954Z,99861.50
2022-08-02T04:22:39.361Z,99868.56
2022-08-02T04:25:09.534Z,99868.00
2022-08-02T04:28:15.252Z,99862.25
2022-08-02T04:30:32.606Z,99867.12
2022-08-02T04:33:00.088Z,99868.75
2022-08-02T04:35:27.010Z,99861.69
2022-08-02T04:38:09.678Z,99876.34
2022-08-02T04:40:38.268Z,99877.44
2022-08-02T04:43:05.019Z,99875.50
2022-08-02T04:45:32.498Z,99876.56
2022-08-02T04:48:05.105Z,99889.63
2022-08-02T04:50:32.569Z,99893.41
2022-08-02T04:52:59.647Z,99897.97
2022-08-02T04:55:28.947Z,99904.19
2022-08-02T04:57:57.604Z,99893.28
2022-08-02T05:00:26.573Z,99904.97
2022-08-02T05:02:54.152Z,99904.13
2022-08-02T05:05:20.969Z,99896.75
2022-08-02T05:07:47.957Z,99910.84
2022-08-02T05:10:15.151Z,99911.06
2022-08-02T05:12:42.491Z,99908.87
2022-08-02T05:15:12.792Z,99906.72
2022-08-02T05:17:47.575Z,99907.50
2022-08-02T05:20:20.314Z,99905.31
2022-08-02T05:22:47.438Z,99900.41
2022-08-02T05:25:14.912Z,99884.63
2022-08-02T05:27:42.441Z,99897.09
2022-08-02T05:30:09.900Z,99899.19
2022-08-02T05:32:44.203Z,99886.13
2022-08-02T05:35:11.831Z,99905.69
2022-08-02T05:37:38.722Z,99893.13
2022-08-02T05:40:12.842Z,99904.00
2022-08-02T05:42:40.609Z,99912.94
2022-08-02T05:45:08.281Z,99909.72
2022-08-02T05:47:35.297Z,99911.03
2022-08-02T05:50:02.812Z,99922.38
2022-08-02T05:52:45.057Z,99924.75
2022-08-02T05:55:17.297Z,99922.28
2022-08-02T05:58:13.226Z,99927.69
2022-08-02T06:00:42.125Z,99916.81
2022-08-02T06:03:21.970Z,99916.50
2022-08-02T06:06:12.534Z,99914.88
2022-08-02T06:08:48.842Z,99924.97
2022-08-02T06:11:21.041Z,99921.16
2022-08-02T06:13:48.505Z,99925.44
2022-08-02T06:16:15.652Z,99928.09
2022-08-02T06:18:45.741Z,99924.84
2022-08-02T06:22:31.550Z,99925.37
2022-08-02T06:24:03.243Z,99919.97
2022-08-02T06:26:30.259Z,99925.37
2022-08-02T06:28:58.229Z,99911.78
2022-08-02T08:24:12.873Z,99972.09
2022-08-02T08:26:40.196Z,99972.09
2022-08-02T08:29:07.636Z,99970.75
2022-08-02T08:31:36.464Z,99966.94
2022-08-02T08:34:04.000Z,99959.31
2022-08-02T08:36:31.291Z,99967.12
2022-08-02T08:38:57.924Z,99949.44
2022-08-02T08:41:25.027Z,99940.16
2022-08-02T08:43:56.846Z,99944.03
2022-08-02T08:46:29.429Z,99944.22
2022-08-02T08:49:03.351Z,99955.13
2022-08-02T08:51:36.006Z,99954.63
2022-08-02T08:54:05.007Z,99948.34
2022-08-02T08:56:35.732Z,99954.87
2022-08-02T08:59:04.615Z,99958.97
2022-08-02T09:01:49.944Z,99971.22
2022-08-02T09:04:18.565Z,99954.87
2022-08-02T09:06:45.632Z,99974.72
2022-08-02T09:09:12.300Z,99969.31
2022-08-02T09:11:39.112Z,99978.81
2022-08-02T09:14:06.289Z,99971.72
2022-08-02T09:16:38.500Z,99980.16
2022-08-02T09:19:26.529Z,99987.47
2022-08-02T09:22:11.441Z,99993.44
2022-08-02T09:24:42.786Z,99998.81
2022-08-02T09:27:16.112Z,100001.44
2022-08-02T09:30:13.344Z,100004.94
2022-08-02T09:32:49.841Z,99996.53
2022-08-02T09:36:06.384Z,99995.72
2022-08-02T09:38:20.904Z,99994.06
2022-08-02T09:40:47.629Z,99992.13
2022-08-02T09:43:14.433Z,99984.56
2022-08-02T09:45:41.515Z,99982.72
2022-08-02T09:48:09.595Z,99976.78
2022-08-02T09:50:38.300Z,99998.22
2022-08-02T09:53:05.906Z,99988.53
2022-08-02T09:55:32.643Z,99974.69
2022-08-02T09:58:17.304Z,99979.84
2022-08-02T10:00:59.097Z,99993.78
2022-08-02T10:03:35.109Z,99990.22
2022-08-02T10:06:04.518Z,99985.31
2022-08-02T10:08:33.771Z,99989.16
2022-08-02T10:11:01.887Z,99997.31
2022-08-02T10:13:29.524Z,99984.88
2022-08-02T10:15:57.287Z,99994.97
2022-08-02T10:18:38.257Z,99996.88
2022-08-02T10:21:12.550Z,99993.66
2022-08-02T10:23:40.759Z,99996.41
2022-08-02T10:26:08.903Z,100003.44
2022-08-02T10:28:36.535Z,99978.44
2022-08-02T10:31:07.096Z,99997.47
2022-08-02T10:33:37.494Z,100002.09
2022-08-02T10:36:07.836Z,99996.69
2022-08-02T10:38:36.102Z,99996.41
2022-08-02T10:41:03.560Z,99995.59
2022-08-02T10:43:36.735Z,99995.59
2022-08-02T10:46:23.555Z,99987.50
2022-08-02T10:49:18.539Z,99983.44
2022-08-02T10:52:02.133Z,99989.19
2022-08-02T10:54:34.136Z,99980.72
2022-08-02T10:57:01.759Z,99979.38
2022-08-02T10:59:36.711Z,99988.34
2022-08-02T11:02:06.341Z,99991.09
2022-08-02T11:04:42.224Z,99993.28
2022-08-02T11:07:20.607Z,99971.00
2022-08-02T11:09:49.950Z,99993.56
2022-08-02T11:12:20.915Z,100005.25
2022-08-02T11:15:08.197Z,99989.19
2022-08-02T11:17:56.174Z,100007.38
2022-08-02T11:20:24.294Z,100009.78
2022-08-02T11:22:53.235Z,100019.16
2022-08-02T11:25:22.872Z,100013.66
2022-08-02T11:27:58.989Z,100021.75
2022-08-02T11:30:27.487Z,100018.16
2022-08-02T11:32:59.100Z,99999.25
2022-08-02T11:35:53.008Z,100007.72
2022-08-02T11:38:21.241Z,100004.47
2022-08-02T11:40:49.424Z,100000.37
2022-08-02T11:43:22.027Z,100001.72
2022-08-02T11:45:52.325Z,100005.50
2022-08-02T11:48:37.585Z,99996.81
2022-08-02T11:51:10.433Z,99996.03
2022-08-02T11:53:44.123Z,99991.19
2022-08-02T11:56:11.346Z,99991.19
2022-08-02T11:58:39.461Z,99994.16
2022-08-02T12:01:08.852Z,99992.78
2022-08-02T12:03:37.741Z,99981.41
2022-08-02T12:06:16.219Z,99978.94
2022-08-02T12:08:54.575Z,99974.88
2022-08-02T12:11:21.766Z,99985.78
2022-08-02T12:13:56.590Z,99992.87
2022-08-02T12:16:43.343Z,99987.53
2022-08-02T12:19:19.794Z,99984.88
2022-08-02T12:21:47.254Z,99972.91
2022-08-02T12:24:28.450Z,99982.19
2022-08-02T12:26:55.288Z,99979.50
2022-08-02T12:29:55.629Z,99982.78
2022-08-02T12:32:26.488Z,99974.94
2022-08-02T12:35:06.645Z,99988.25
2022-08-02T12:37:33.960Z,99981.50
2022-08-02T12:40:26.192Z,99963.25
2022-08-02T12:42:56.469Z,99977.97
2022-08-02T12:45:24.008Z,99979.03
2022-08-02T12:47:53.535Z,99985.28
2022-08-02T12:50:32.568Z,99978.19
2022-08-02T12:53:12.678Z,99979.59
2022-08-02T12:55:59.480Z,99975.00
2022-08-02T12:58:46.052Z,99972.59
2022-08-02T13:01:20.101Z,99971.78
2022-08-02T13:04:11.854Z,99970.69
2022-08-02T13:06:49.677Z,99963.34
2022-08-02T13:09:17.518Z,99972.88
2022-08-02T13:11:45.016Z,99971.00
2022-08-02T13:14:12.913Z,99966.62
2022-08-02T13:16:40.937Z,99973.38
2022-08-02T13:19:07.704Z,99979.03
2022-08-02T13:21:41.090Z,99980.69
2022-08-02T13:24:38.302Z,99984.72
2022-08-02T13:27:08.493Z,99992.56
2022-08-02T13:29:37.412Z,99982.75
2022-08-02T13:32:04.533Z,99982.16
2022-08-02T13:34:31.234Z,99988.94
2022-08-02T13:36:58.775Z,99976.69
2022-08-02T13:39:25.439Z,99991.09
2022-08-02T13:41:52.230Z,99987.53
2022-08-02T13:44:19.372Z,99996.72
2022-08-02T13:46:46.327Z,99999.09
2022-08-02T13:49:18.914Z,99997.97
2022-08-02T13:51:47.599Z,100002.84
2022-08-02T13:54:15.431Z,100004.41
2022-08-02T13:56:42.566Z,99996.00
2022-08-02T13:59:53.512Z,99994.03
2022-08-02T14:01:58.869Z,100002.44
2022-08-02T14:04:27.111Z,100004.88
2022-08-02T14:06:54.175Z,100000.19
2022-08-02T14:09:20.989Z,99987.69
2022-08-02T14:11:48.580Z,99987.13
2022-08-02T14:14:17.364Z,99990.34
2022-08-02T14:16:45.822Z,99985.69
2022-08-02T14:19:16.539Z,99975.31
2022-08-02T14:21:46.444Z,99971.50
2022-08-02T14:24:19.376Z,99974.78
2022-08-02T14:26:47.639Z,99976.91
2022-08-02T14:29:16.483Z,99980.69
2022-08-02T14:31:44.963Z,99974.16
2022-08-02T14:34:13.489Z,99968.44
2022-08-02T14:36:40.973Z,99970.25
2022-08-02T14:39:07.997Z,99968.81
2022-08-02T14:41:59.777Z,99963.13
2022-08-02T14:44:23.688Z,99964.91
2022-08-02T14:46:51.547Z,99965.97
2022-08-02T14:49:25.357Z,99967.06
2022-08-02T14:51:57.589Z,99960.50
2022-08-02T14:54:31.440Z,99964.28
2022-08-02T14:57:00.602Z,99976.41
2022-08-02T14:59:27.950Z,99979.31
2022-08-02T15:01:55.201Z,99972.22
2022-08-02T15:04:22.379Z,99963.06
2022-08-02T15:06:49.078Z,99968.72
2022-08-02T15:09:15.801Z,99956.97
2022-08-02T15:11:46.929Z,99969.16
2022-08-02T15:14:26.029Z,99965.31
2022-08-02T15:16:57.641Z,99964.00
2022-08-02T15:19:55.932Z,99971.56
2022-08-02T15:22:16.481Z,99975.56
2022-08-02T15:24:47.368Z,99972.28
2022-08-02T15:27:15.999Z,99978.28
2022-08-02T15:29:44.997Z,99999.88
2022-08-02T15:32:13.086Z,99975.47
2022-08-02T15:34:40.623Z,99986.94
2022-08-02T15:37:07.480Z,99989.97
2022-08-02T15:39:34.335Z,99988.63
2022-08-02T15:42:01.397Z,99974.06
2022-08-02T15:44:28.345Z,99987.84
2022-08-02T15:46:55.710Z,99980.53
2022-08-02T15:49:24.370Z,99984.06
2022-08-02T15:51:52.506Z,99986.53
2022-08-02T15:54:19.348Z,99973.19
2022-08-02T15:56:46.549Z,99988.72
2022-08-02T15:59:13.374Z,99982.25
2022-08-02T16:01:43.448Z,99977.41
2022-08-02T16:04:14.650Z,99986.88
2022-08-02T16:06:41.636Z,99984.78
2022-08-02T16:09:08.803Z,99976.03
2022-08-02T16:11:36.134Z,99985.59
2022-08-02T16:14:03.897Z,99988.03
2022-08-02T16:16:32.678Z,99991.53
2022-08-02T16:19:47.552Z,100010.47
2022-08-02T16:21:48.312Z,99991.50
2022-08-02T16:24:15.462Z,100000.16
2022-08-02T16:26:42.600Z,100005.25
2022-08-02T16:29:09.446Z,100002.00
2022-08-02T16:31:41.574Z,100001.66
2022-08-02T16:34:09.754Z,100003.00
2022-08-02T16:36:37.503Z,100012.41
2022-08-02T16:39:05.083Z,100002.00
2022-08-02T16:44:27.671Z,100020.41
2022-08-02T16:50:04.815Z,100011.25
2022-08-02T16:52:31.637Z,100009.13
2022-08-02T16:54:59.195Z,100007.00
2022-08-02T16:57:42.538Z,100010.25
2022-08-02T17:00:12.947Z,100011.41
2022-08-02T17:02:40.025Z,100011.72
2022-08-02T17:05:13.500Z,100011.22
2022-08-02T17:08:07.694Z,100006.41
2022-08-02T17:10:33.559Z,100005.00
2022-08-02T17:13:10.855Z,100019.97
2022-08-02T17:16:16.209Z,100016.97
2022-08-02T17:18:28.852Z,100006.69
2022-08-02T17:20:56.349Z,100016.47
2022-08-02T17:23:23.071Z,100022.81
2022-08-02T17:26:10.027Z,100025.25
2022-08-02T17:28:56.558Z,100029.63
2022-08-02T17:31:29.410Z,100026.91
2022-08-02T17:33:56.878Z,100024.47
2022-08-02T17:36:25.841Z,100014.97
2022-08-02T17:38:53.062Z,100024.13
2022-08-02T17:41:19.926Z,100024.63
2022-08-02T17:44:08.568Z,100028.97
2022-08-02T17:46:35.635Z,100028.97
2022-08-02T17:49:16.807Z,100011.56
2022-08-02T17:52:47.987Z,100031.13
2022-08-02T17:54:31.572Z,100023.81
2022-08-02T17:56:58.348Z,100030.87
2022-08-02T17:59:31.166Z,100031.69
2022-08-02T18:02:11.259Z,100022.91
2022-08-02T18:04:39.013Z,100027.56
2022-08-02T18:07:09.909Z,100030.03
2022-08-02T18:09:37.493Z,100028.16
2022-08-02T18:12:13.961Z,100039.28
2022-08-02T18:14:48.877Z,100039.84
2022-08-02T18:17:16.871Z,100036.03
2022-08-02T18:19:56.706Z,100039.03
2022-08-02T18:22:31.057Z,100049.03
2022-08-02T18:24:58.412Z,100039.78
2022-08-02T18:27:25.154Z,100043.78
2022-08-02T18:30:00.424Z,100045.19
2022-08-02T18:33:56.090Z,100041.69
2022-08-02T18:35:19.113Z,100038.13
2022-08-02T18:37:56.648Z,100040.03
2022-08-02T18:40:24.629Z,100039.12
2022-08-02T18:42:51.475Z,100042.66
2022-08-02T18:45:19.872Z,100038.56
2022-08-02T18:47:50.794Z,100043.00
2022-08-02T18:50:18.846Z,100059.69
2022-08-02T18:52:47.635Z,100056.09
2022-08-02T18:55:17.435Z,100043.84
2022-08-02T18:58:19.655Z,100055.53
2022-08-02T19:00:51.489Z,100048.75
2022-08-02T19:03:19.678Z,100055.19
2022-08-02T19:05:53.134Z,100049.72
2022-08-02T19:08:26.298Z,100061.34
2022-08-02T19:10:56.159Z,100045.38
2022-08-02T19:13:24.664Z,100051.03
2022-08-02T19:15:52.859Z,100049.16
2022-08-02T19:18:19.691Z,100042.94
2022-08-02T19:20:57.179Z,100044.81
2022-08-02T19:23:29.569Z,100034.75
2022-08-02T19:25:57.043Z,100046.47
2022-08-02T19:28:26.127Z,100050.78
2022-08-02T19:30:57.029Z,100040.97
2022-08-02T19:34:06.174Z,100040.72
2022-08-02T19:36:11.960Z,100042.69
2022-08-02T19:38:43.730Z,100040.81
2022-08-02T19:41:13.230Z,100048.94
2022-08-02T19:44:26.416Z,100043.53
2022-08-02T19:46:27.200Z,100035.31
2022-08-02T19:48:54.293Z,100038.13
2022-08-02T19:51:49.498Z,100032.88
2022-08-02T19:54:10.589Z,100037.28
2022-08-02T19:56:40.269Z,100045.13
2022-08-02T19:59:12.951Z,100039.72
2022-08-02T20:01:44.830Z,100038.38
2022-08-02T20:04:28.397Z,100037.88
2022-08-02T20:06:55.287Z,100043.03
2022-08-02T20:09:33.289Z,100034.03
2022-08-02T20:12:14.670Z,100046.53
2022-08-02T20:14:50.940Z,100037.94
2022-08-02T20:17:20.729Z,100044.13
2022-08-02T20:19:47.828Z,100042.28
2022-08-02T20:22:16.146Z,100053.66
2022-08-02T20:24:43.683Z,100046.28
2022-08-02T20:27:19.365Z,100053.66
2022-08-02T20:29:50.983Z,100046.59
2022-08-02T20:32:23.872Z,100033.34
2022-08-02T20:34:52.793Z,100045.28
2022-08-02T20:37:59.497Z,100034.72
2022-08-02T20:40:08.333Z,100041.53
2022-08-02T20:42:35.585Z,100036.13
2022-08-02T20:45:03.340Z,100036.13
2022-08-02T20:47:39.992Z,100027.13
2022-08-02T20:50:31.658Z,100041.03
2022-08-02T20:53:04.179Z,100041.28
2022-08-02T20:55:32.081Z,100045.34
2022-08-02T20:58:04.508Z,100045.59
2022-08-02T21:00:31.968Z,100039.88
2022-08-02T21:03:02.988Z,100045.59
2022-08-02T21:05:43.721Z,100048.06
2022-08-02T21:08:21.441Z,100039.12
2022-08-02T21:10:50.503Z,100048.88
2022-08-02T21:13:46.257Z,100036.38
2022-08-02T21:16:18.300Z,100043.47
2022-08-02T21:18:46.182Z,100049.69
2022-08-02T21:21:14.498Z,100018.50
2022-08-02T21:23:48.959Z,100031.53
2022-08-02T21:26:25.727Z,100024.97
2022-08-02T21:28:55.709Z,100043.47
2022-08-02T21:31:23.000Z,100039.94
2022-08-02T21:33:57.251Z,100036.44
2022-08-02T21:36:30.627Z,100038.56
2022-08-02T21:39:05.150Z,100042.91
2022-08-02T21:41:39.952Z,100053.16
2022-08-02T21:44:17.825Z,100034.91
2022-08-02T21:46:50.436Z,100049.00
2022-08-02T21:49:18.801Z,100049.25
2022-08-02T21:51:49.427Z,100048.94
2022-08-02T21:57:06.556Z,100049.72
2022-08-02T21:59:35.096Z,100051.88
2022-08-02T22:02:02.051Z,100048.09
2022-08-02T22:04:29.139Z,100042.69
2022-08-02T22:06:56.807Z,100048.09
2022-08-02T22:09:44.484Z,100049.41
2022-08-02T22:12:12.631Z,100044.50
2022-08-02T22:14:43.863Z,100045.38
2022-08-02T22:17:17.117Z,100054.56
2022-08-02T22:19:54.068Z,100058.41
2022-08-02T22:22:28.416Z,100060.03
2022-08-02T22:24:56.499Z,100065.44
2022-08-02T22:28:13.363Z,100067.09
2022-08-02T22:30:11.482Z,100067.09
2022-08-02T22:32:57.001Z,100076.56
2022-08-02T22:35:23.783Z,100067.72
2022-08-02T22:38:16.632Z,100070.41
2022-08-02T22:40:37.749Z,100064.94
2022-08-02T22:43:06.811Z,100060.19
2022-08-02T22:45:37.439Z,100064.53
2022-08-02T22:48:05.001Z,100062.91
2022-08-02T22:50:32.338Z,100057.91
2022-08-02T22:52:59.298Z,100065.00
2022-08-02T22:55:32.728Z,100060.09
2022-08-02T22:57:59.752Z,100059.06
2022-08-02T22:58:34.210Z,100001.44
2022-08-02T22:58:34.851Z,100017.72
2022-08-02T22:59:03.801Z,100048.69
2022-08-02T23:00:26.725Z,100046.53
2022-08-02T23:02:53.451Z,100055.78
2022-08-02T23:05:21.638Z,100049.72
2022-08-02T23:07:48.306Z,100063.91
2022-08-02T23:10:15.122Z,100053.34
2022-08-02T23:12:42.349Z,100057.91
2022-08-02T23:15:09.877Z,100062.25
2022-08-02T23:17:55.038Z,100071.41
2022-08-02T23:20:22.675Z,100068.97
2022-08-02T23:22:49.389Z,100060.03
2022-08-02T23:25:16.175Z,100061.94
2022-08-02T23:27:50.491Z,100060.28
2022-08-02T23:30:18.951Z,100052.38
2022-08-02T23:32:46.833Z,100057.84
2022-08-02T23:35:16.986Z,100068.41
2022-08-02T23:37:59.759Z,100066.19
2022-08-02T23:40:39.700Z,100062.69
2022-08-02T23:43:13.522Z,100062.44
2022-08-02T23:45:44.392Z,100066.50
2022-08-02T23:48:11.235Z,100076.50
2022-08-02T23:50:38.027Z,100071.84
2022-08-02T23:53:05.046Z,100073.56
2022-08-02T23:55:31.702Z,100073.31
2022-08-02T23:57:58.411Z,100076.81
